• Join FlightAware (Why Join?)
  • Login
  • US Flag 
01:08PM EST


 

Airport Tracker/Info


-or-


 

Live Flight TrackerFlight Track Log ✈ AAY854 ✈ 12-May-2014 ✈ KPIE - KSBN

Flight Track Log - Related Links

Times and Time Zones

All times are in EDT time to prevent confusion due to time zone crossing. See the AAY854 flight status page for this flight to view local times or setup timezone preferences in your user account.

Time Position Orientation Groundspeed Altitude Reporting Facility
EDT Latitude Longitude Course Direction KTS MPH feet Rate Location/Type
04:59PM 27.9667 -82.6833 360° North 185 213 1,900  Level Tampa TRACON
04:59PM 27.9833 -82.6833 360° North 202 232 2,300 1,560 Climbing Tampa TRACON
05:00PM 28.0333 -82.6667 16° North 276 318 4,000 2,220 Climbing Tampa TRACON
05:02PM 28.1697 -82.6942 350° North 279 321 8,600 2,280 Climbing Miami Center
05:03PM 28.2517 -82.7183 345° North 294 338 10,600 1,680 Climbing Miami Center
05:04PM 28.3494 -82.7406 349° North 338 389 12,100 2,040 Climbing Miami Center
05:05PM 28.4817 -82.7714 348° North 390 449 14,800 2,220 Climbing Miami Center
05:06PM 28.5822 -82.7950 348° North 406 467 16,700 1,740 Climbing Miami Center
05:07PM 28.6981 -82.8247 347° North 425 489 18,400 1,980 Climbing Miami Center
05:08PM 28.8450 -82.8617 348° North 426 490 20,900 1,980 Climbing Jacksonville Center
05:09PM 28.9658 -82.8925 347° North 432 497 22,500 1,500 Climbing Jacksonville Center
05:10PM 29.0911 -82.9233 348° North 446 513 23,900 1,440 Climbing Jacksonville Center
05:11PM 29.2206 -82.9544 348° North 453 521 25,400 1,560 Climbing Jacksonville Center
05:12PM 29.3500 -82.9856 348° North 464 534 27,100 1,620 Climbing Jacksonville Center
05:13PM 29.4731 -83.0167 348° North 464 534 28,700 1,500 Climbing Jacksonville Center
05:14PM 29.5878 -83.0478 347° North 469 540 30,100 1,500 Climbing Jacksonville Center
05:15PM 29.7069 -83.1006 339° North 463 533 31,800 900 Climbing Jacksonville Center
05:16PM 29.8194 -83.1536 338° Northwest 452 520 32,000  Climbing Jacksonville Center
05:17PM 29.9364 -83.2067 339° North 447 514 31,900 -60 Descending Jacksonville Center
05:18PM 30.0531 -83.2597 339° North 447 514 31,900  Level Jacksonville Center
05:19PM 30.1656 -83.3106 339° North 442 509 31,900  Level Jacksonville Center
05:20PM 30.2822 -83.3664 338° Northwest 442 509 31,900  Level Jacksonville Center
05:21PM 30.3969 -83.4200 338° Northwest 442 509 31,900  Level Jacksonville Center
05:22PM 30.5136 -83.4736 338° Northwest 442 509 31,900  Level Jacksonville Center
05:23PM 30.6283 -83.5275 338° Northwest 442 509 31,900  Level Jacksonville Center
05:24PM 30.7533 -83.5864 338° Northwest 442 509 32,000  Climbing Jacksonville Center
05:25PM 30.8678 -83.6428 337° Northwest 442 509 32,000  Level Jacksonville Center
05:26PM 30.9842 -83.6994 337° Northwest 442 509 32,000  Level Jacksonville Center
05:27PM 31.1008 -83.7539 338° Northwest 442 509 32,000  Level Jacksonville Center
05:28PM 31.2175 -83.8108 337° Northwest 442 509 32,000  Level Jacksonville Center
05:29PM 31.3361 -83.8681 338° Northwest 447 514 32,000  Level Jacksonville Center
05:31PM 31.5983 -83.9778 340° North 454 522 32,000  Level Atlanta Center
05:32PM 31.7258 -84.0072 349° North 454 522 32,000 240 Level Atlanta Center
05:33PM 31.8636 -84.0364 350° North 454 522 32,500 660 Climbing Atlanta Center
05:34PM 31.9867 -84.0633 349° North 449 517 33,400 720 Climbing Atlanta Center
05:35PM 32.1139 -84.0708 357° North 449 517 34,000 300 Climbing Atlanta Center
05:36PM 32.2392 -84.0758 358° North 449 517 34,000  Level Atlanta Center
05:37PM 32.3644 -84.0831 357° North 443 510 34,000  Level Atlanta Center
05:38PM 32.4917 -84.0906 357° North 443 510 34,000  Level Atlanta Center
05:39PM 32.6169 -84.0981 357° North 448 516 34,000  Level Atlanta Center
05:40PM 32.7444 -84.1056 357° North 448 516 34,000  Level Atlanta Center
05:41PM 32.8717 -84.1131 357° North 453 521 34,000  Level Atlanta Center
05:42PM 32.9969 -84.1231 356° North 453 521 34,000  Level Atlanta Center
05:43PM 33.1222 -84.1331 356° North 453 521 34,000  Level Atlanta Center
05:44PM 33.2472 -84.1381 358° North 453 521 34,000  Level Atlanta Center
05:45PM 33.3725 -84.1483 356° North 453 521 34,000  Level Atlanta Center
05:46PM 33.4978 -84.1533 358° North 448 516 34,000  Level Atlanta Center
05:47PM 33.6231 -84.1611 357° North 448 516 34,000  Level Atlanta Center
05:48PM 33.7503 -84.1711 356° North 448 516 34,000  Level Atlanta Center
05:49PM 33.8778 -84.1939 352° North 448 516 34,000  Level Atlanta Center
05:50PM 33.9944 -84.2167 351° North 443 510 34,000  Level Atlanta Center
05:51PM 34.1197 -84.2444 350° North 443 510 34,000  Level Atlanta Center
05:52PM 34.2406 -84.2725 349° North 443 510 34,000  Level Atlanta Center
05:53PM 34.3639 -84.3006 349° North 443 510 34,000  Level Atlanta Center
05:54PM 34.4722 -84.3236 350° North 450 518 34,000  Level Atlanta Center
05:55PM 34.5933 -84.3542 348° North 450 518 34,000  Level Atlanta Center
05:56PM 34.7142 -84.3825 349° North 450 518 34,000  Level Atlanta Center
05:57PM 34.8350 -84.4083 350° North 450 518 34,000  Level Atlanta Center
05:58PM 34.9561 -84.4367 349° North 450 518 34,000  Level Atlanta Center
05:59PM 35.0769 -84.4650 349° North 445 512 34,000  Level Atlanta Center
06:00PM 35.1958 -84.4911 350° North 445 512 34,000  Level Atlanta Center
06:01PM 35.3147 -84.5197 349° North 445 512 34,000  Level Atlanta Center
06:02PM 35.4336 -84.5486 349° North 440 506 34,000  Level Atlanta Center
06:03PM 35.5564 -84.5747 350° North 440 506 34,000  Level Atlanta Center
06:04PM 35.6753 -84.6036 349° North 440 506 34,000  Level Atlanta Center
06:05PM 35.7983 -84.6328 349° North 440 506 34,000  Level Atlanta Center
06:06PM 35.9211 -84.6567 351° North 440 506 34,000  Level Atlanta Center
06:09PM 36.2058 -84.7289 348° North 446 513 34,000  Level Indianapolis Center
06:10PM 36.3281 -84.7583 349° North 446 513 34,000  Level Indianapolis Center
06:11PM 36.4747 -84.7878 351° North 446 513 34,000  Level Indianapolis Center
06:12PM 36.5972 -84.8011 355° North 446 513 34,000  Level Indianapolis Center
06:13PM 36.7203 -84.8150 355° North 446 513 34,000  Level Indianapolis Center
06:14PM 36.8442 -84.8294 355° North 446 513 34,000  Level Indianapolis Center
06:15PM 36.9672 -84.8442 355° North 446 513 34,000  Level Indianapolis Center
06:16PM 37.0919 -84.8581 355° North 446 513 34,000  Level Indianapolis Center
06:17PM 37.2361 -84.8764 354° North 445 512 34,000  Level Indianapolis Center
06:18PM 37.3597 -84.8900 355° North 445 512 34,000  Level Indianapolis Center
06:19PM 37.4814 -84.9061 354° North 443 510 34,000  Level Indianapolis Center
06:20PM 37.6053 -84.9200 355° North 443 510 34,000  Level Indianapolis Center
06:21PM 37.7308 -84.9333 355° North 445 512 34,000  Level Indianapolis Center
06:22PM 37.8542 -84.9497 354° North 445 512 34,000  Level Indianapolis Center
06:23PM 38.0003 -84.9658 355° North 445 512 34,000  Level Indianapolis Center
06:24PM 38.1258 -84.9869 352° North 449 517 34,000  Level Indianapolis Center
06:25PM 38.2503 -85.0269 346° North 457 526 34,000  Level Indianapolis Center
06:26PM 38.3717 -85.0689 345° North 456 525 34,000  Level Indianapolis Center
06:27PM 38.4956 -85.1111 345° North 456 525 34,000  Level Indianapolis Center
06:28PM 38.6181 -85.1556 344° North 456 525 34,000 -120 Level Indianapolis Center
06:29PM 38.7428 -85.2006 344° North 456 525 33,800 -540 Descending Indianapolis Center
06:30PM 38.8608 -85.2417 345° North 446 513 33,000 -1,140 Descending Indianapolis Center
06:31PM 39.0053 -85.2922 345° North 446 513 31,500 -1,380 Descending Indianapolis Center
06:32PM 39.1256 -85.3361 344° North 448 516 30,200 -1,320 Descending Indianapolis Center
06:33PM 39.2458 -85.3806 344° North 448 516 28,800 -1,080 Descending Indianapolis Center
06:34PM 39.3664 -85.4228 345° North 448 516 28,000 -420 Descending Indianapolis Center
06:35PM 39.4836 -85.4653 344° North 448 516 28,000 -300 Level Indianapolis Center
06:36PM 39.6247 -85.5175 344° North 443 510 27,400 -1,020 Descending Indianapolis Center
06:37PM 39.7428 -85.5581 345° North 443 510 26,000 -1,500 Descending Indianapolis Center
06:38PM 39.8542 -85.5978 345° North 431 496 24,400 -1,020 Descending Indianapolis Center
06:40PM 39.9592 -85.6358 344° North 407 468 24,000 -720 Descending Indianapolis Center
06:41PM 40.0672 -85.6750 344° North 405 466 23,000 -1,020 Descending Indianapolis Center
06:42PM 40.1958 -85.7233 344° North 405 466 22,000 -540 Descending Indianapolis Center
06:43PM 40.3008 -85.7606 345° North 398 458 22,000  Level Indianapolis Center
06:43PM 40.3853 -85.7903 345° North 397 457 22,000 -720 Level Chicago Center
06:44PM 40.4917 -85.8300 344° North 398 458 20,800 -1,500 Descending Chicago Center
06:45PM 40.5981 -85.8711 344° North 399 459 19,000 -1,920 Descending Chicago Center
06:46PM 40.7106 -85.9128 344° North 385 443 16,900 -2,220 Descending Chicago Center
06:48PM 40.8125 -85.9508 344° North 383 441 14,500 -2,220 Descending Chicago Center
06:49PM 40.9125 -85.9878 344° North 374 430 12,400 -1,680 Descending Chicago Center
06:50PM 41.0097 -86.0261 343° North 367 422 11,000 -720 Descending Chicago Center
06:51PM 41.1089 -86.0578 346° North 366 421 10,900 -540 Descending Chicago Center
06:52PM 41.2022 -86.0797 350° North 345 397 9,900 -1,080 Descending Chicago Center
06:53PM 41.3014 -86.1075 348° North 308 354 8,700 -1,320 Descending Chicago Center
06:54PM 41.3803 -86.1297 348° North 293 337 7,200 -1,680 Descending Chicago Center
06:55PM 41.4578 -86.1503 349° North 286 329 5,300 -1,980 Descending Chicago Center
06:56PM 41.5356 -86.1633 353° North 283 326 3,200 -1,140 Descending Chicago Center
06:57PM 41.6094 -86.1756 353° North 279 321 3,000 -180 Descending Chicago Center
06:58PM 41.6689 -86.1858 353° North 244 281 2,900 -540 Descending Chicago Center
06:59PM 41.7058 -86.2317 317° Northwest 189 217 1,900 -840 Descending Chicago Center
07:00PM 41.7031 -86.2906 266° West 165 190 1,200 -720 Descending Chicago Center